Kansas City, KS

10:09 PM CDT on September 30, 2016 (GMT -0500)
Scott's North Kansas City Station | | Change Station

Elev 758 ft 39.15 °N, 94.57 °W | Updated 3 minutes ago

Clear
Clear
61.4 °F
Feels Like 61.4 °F
N
0.0
Wind Variable Wind from NW
Gusts 1.0 mph

Today
High -- | Low -- °F
--% Chance of Precip.
Yesterday
High -- | Low -- °F
Precip. -- in
Pressure 30.12 in
Visibility 10.0 miles
Clouds Clear
Dew Point 55 °F
Humidity 79%
Rainfall 0.00 in
Snow Depth Not available.
7:14 AM 7:01 PM
New Moon, 0% visible
METAR KMKC 010254Z 07007KT 10SM CLR 17/12 A3012 RMK AO2 SLP198 T01720122 53003
Pressure 30.12 in
Visibility 10.0 miles
Clouds Clear
Dew Point 55 °F
Humidity 79%
Rainfall 0.00 in
Snow Depth Not available.
7:14 AM 7:01 PM
New Moon, 0% visible
METAR KMKC 010254Z 07007KT 10SM CLR 17/12 A3012 RMK AO2 SLP198 T01720122 53003

10-Day Weather Forecast

Almanac

Astronomy

Sep. 30, 2016 Rise Set
Actual Time
Civil Twilight
Nautical Twilight
Astronomical Twilight
Moon
Length of Visible Light
Length of Day
Tomorrow will be .
, % of the Moon is Illuminated

Today's Extremes

State Highs State Lows

Community

WunderPhotos

Upload Photos

1,942,881 photos uploaded!

WunderBlog® & News

Nearby

Air Quality

  Air Quality AQ Index Pollutant
Not available.

Snow Depth

Station Depth Elevation

Earthquake Activity

City Distance Mag. Time & Date
Minimum magnitude displayed is 2.5.

Coastal Water Temperatures

Place Temperature

Stations

Nearby Weather Stations

Station Location Temp. Windchill Dew Point Humidity Wind Precip. Elev Updated Type
                   

Watches & Warnings

There are currently no watches in effect.